Airfield :
LOGIN :

Register | Disclaimer

   EN    FR    IT 

 










Legend :    VFR   Marginal VFR   IFR   Intensive IFR   Very Intensive IFR
Visi :
Ceiling :
>= 8 km
>= 3000ft
5 to 8 km
1000 to 3000 ft
1500m to 5 km
500 to 1000 ft
800 to 1500m
200 to 500 ft
< 800m
< 200 ft
Symbols :   Thunderstorms  Fog  Heavy snow  Heavy precipitations  Wind > 20 kt
SIGMETs :     Misc.  Thunderstorms  Icing  Turbulence  Mountain Waves  Volcanic Ashes







- Airport Elevation : 1234 ft
- IATA code : LUX


ELLX - Luxembourg Findel

CURRENT METAR :
  • 251450Z 06007KT 030V100 9999 SCT035 18/10 Q1019 NOSIG

EXPIRED METARs :
  • 251420Z 05006KT 020V080 9999 FEW015 18/10 Q1019 NOSIG
  • 251350Z 06005KT 020V120 9999 FEW030 18/10 Q1019 NOSIG
  • 251320Z 07004KT 360V170 9999 FEW015 18/10 Q1019 NOSIG
  • 251250Z 08005KT 050V120 9999 FEW025 18/10 Q1020 NOSIG
  • 251220Z 07006KT 040V100 9999 FEW025 17/10 Q1020 NOSIG

TAF TAF ELLX
Valid from the 25 at 12:00 until the 26 at 18:00 UTC


251100Z 2512/2618 05007KT CAVOK
TEMPO 2606/2609 2500 BR
PROB30
TEMPO 2606/2608 0300 FG BKN003
ATIS : +352 4798 27300
Met : +352 4798 27010 / 27050
No reported NOTAMs for that airfield.



MET'MAP, your aeronautical weather chart ! - Copyright ORBIFLY December 2007 - Disclaimer

ORBIFLY MET'MAP TEAM :

Programming & Development : Alexandra Zaïnal
Concept & Development : Baudouin d'Aumeries
Co-Development & Prog : Marc-Olivier Méhu
Technical & hardware support : Manuel Goepfert

Contact : metmap@orbifly.com




SOURCES & CREDITS :

   NOAA